Time;durP1;ratioP1;P1;durP2;ratioP2;P2;SDS_P1;SDS_P2;PMS_P1;PMS_P2;Temp;Humidity;BMP_temperature;BMP_pressure;BME280_temperature;BME280_humidity;BME280_pressure;Samples;Min_cycle;Max_cycle;Signal;HPM_P1;HPM_P2
2023/01/17 00:01:07;;;;;;;;;12.75;11.75;;;;;7.39;65.10;98370.44;2062927;28;46512;-64
2023/01/17 00:02:07;;;;;;;;;14.00;12.00;;;;;7.38;65.21;98369.59;2054259;28;47192;-64
2023/01/17 00:03:08;;;;;;;;;11.00;11.00;;;;;7.37;65.25;98357.31;2054014;28;45820;-65
2023/01/17 00:10:49;;;;;;;;;8.40;7.80;;;;;7.34;65.13;98359.22;2061689;28;47692;-64
2023/01/17 00:11:49;;;;;;;;;8.00;8.00;;;;;7.33;65.29;98355.72;2063041;28;46548;-64
2023/01/17 00:13:00;;;;;;;;;4.75;4.75;;;;;7.33;64.99;98354.88;2063109;28;46269;-64
2023/01/17 00:14:00;;;;;;;;;7.80;7.80;;;;;7.33;65.24;98353.09;2062643;28;46252;-65
2023/01/17 00:15:01;;;;;;;;;9.75;6.75;;;;;7.34;65.03;98352.16;2059019;28;46374;-64
2023/01/17 00:16:01;;;;;;;;;10.25;9.00;;;;;7.36;65.11;98358.22;2062937;28;46283;-64
2023/01/17 00:17:02;;;;;;;;;9.25;9.00;;;;;7.35;65.12;98350.38;2062347;28;46564;-64
2023/01/17 00:18:02;;;;;;;;;8.50;8.50;;;;;7.35;65.12;98351.22;2057958;28;46740;-65
2023/01/17 00:26:02;;;;;;;;;7.20;7.20;;;;;7.36;65.24;98344.16;2062988;28;46436;-65
2023/01/17 01:33:43;;;;;;;;;7.20;7.00;;;;;7.25;66.16;98320.94;2067399;27;46852;-64
2023/01/17 01:34:43;;;;;;;;;8.00;6.75;;;;;7.27;65.89;98308.53;2067332;27;46171;-64
2023/01/17 01:35:52;;;;;;;;;8.00;8.00;;;;;7.29;65.87;98313.75;2070282;27;46773;-64
2023/01/17 01:36:53;;;;;;;;;9.20;8.40;;;;;7.29;65.71;98311.97;2070726;28;46610;-64
2023/01/17 01:37:53;;;;;;;;;5.50;5.25;;;;;7.29;65.60;98304.03;2070726;28;46522;-65
2023/01/17 01:38:55;;;;;;;;;9.25;7.50;;;;;7.28;65.49;98312.88;2070849;27;46585;-65
2023/01/17 01:39:55;;;;;;;;;6.20;6.20;;;;;7.28;65.63;98310.25;2070542;28;47014;-64
2023/01/17 01:40:56;;;;;;;;;10.50;8.00;;;;;7.27;65.35;98308.53;2071116;28;45242;-65
2023/01/17 01:41:56;;;;;;;;;7.25;5.00;;;;;7.27;65.70;98303.25;2070416;27;47217;-66
2023/01/17 01:42:59;;;;;;;;;8.50;7.50;;;;;7.28;65.45;98304.13;2070727;28;45890;-65
2023/01/17 01:43:59;;;;;;;;;11.00;9.40;;;;;7.29;65.88;98300.56;2070372;28;46278;-65
2023/01/17 01:44:59;;;;;;;;;13.25;10.25;;;;;7.29;65.89;98303.19;2070258;28;46898;-65
2023/01/17 01:46:00;;;;;;;;;4.75;4.75;;;;;7.30;65.42;98305.75;2070525;28;46368;-65
2023/01/17 01:47:01;;;;;;;;;6.50;6.50;;;;;7.32;65.56;98303.03;2063884;28;46296;-66
2023/01/17 01:48:13;;;;;;;;;8.80;7.80;;;;;7.33;65.75;98302.97;2063456;28;46589;-66
2023/01/17 01:49:20;;;;;;;;;6.60;6.60;;;;;7.35;65.67;98302.88;2070622;28;46312;-67
2023/01/17 01:50:21;;;;;;;;;7.60;7.60;;;;;7.35;65.81;98306.38;2063933;28;46745;-65
2023/01/17 01:51:28;;;;;;;;;6.25;4.75;;;;;7.37;65.48;98303.69;2062483;28;46861;-65
2023/01/17 01:52:32;;;;;;;;;9.60;9.60;;;;;7.38;65.67;98306.25;2053352;28;47710;-67
2023/01/17 01:53:36;;;;;;;;;51.20;42.20;;;;;7.40;65.61;98300.91;2060041;28;47543;-65
2023/01/17 01:54:42;;;;;;;;;404.00;380.75;;;;;7.41;65.56;98294.69;2062428;28;45264;-64
2023/01/17 01:55:48;;;;;;;;;432.50;398.50;;;;;7.44;65.90;98297.19;2061831;28;46728;-64
2023/01/17 01:56:50;;;;;;;;;435.00;401.50;;;;;7.47;65.94;98299.66;2075465;28;46510;-64
2023/01/17 01:57:55;;;;;;;;;697.83;653.50;;;;;7.49;66.06;98292.53;2076713;28;45616;-64
2023/01/17 01:58:57;;;;;;;;;553.80;531.00;;;;;7.52;66.00;98289.75;2061151;28;46788;-65
2023/01/17 02:00:05;;;;;;;;;361.80;345.20;;;;;7.56;65.86;98287.81;2061820;28;47184;-65
2023/01/17 02:01:07;;;;;;;;;188.25;175.00;;;;;7.55;65.76;98289.63;2070623;28;45556;-65
2023/01/17 02:02:07;;;;;;;;;121.00;114.50;;;;;7.56;65.71;98288.69;2070258;28;46602;-65
2023/01/17 02:03:18;;;;;;;;;70.00;55.50;;;;;7.56;65.42;98286.03;2070180;27;46386;-65
2023/01/17 02:04:19;;;;;;;;;66.20;52.40;;;;;7.57;65.38;98281.63;2070348;28;46828;-64
2023/01/17 02:05:22;;;;;;;;;43.60;38.00;;;;;7.57;65.18;98279.81;2070382;27;46249;-65
2023/01/17 02:06:38;;;;;;;;;40.80;37.60;;;;;7.57;65.83;98284.25;2070176;27;47235;-65
2023/01/17 02:07:48;;;;;;;;;27.80;25.40;;;;;7.57;65.25;98277.19;2063161;27;46293;-65
2023/01/17 02:08:49;;;;;;;;;28.80;27.80;;;;;7.58;65.44;98276.25;2054316;28;47270;-65
2023/01/17 02:09:49;;;;;;;;;20.75;20.75;;;;;7.60;65.42;98274.41;2069787;28;46898;-65
2023/01/17 02:10:50;;;;;;;;;19.25;18.00;;;;;7.59;65.28;98270.03;2080617;27;46452;-65
2023/01/17 02:11:50;;;;;;;;;19.75;18.00;;;;;7.61;65.34;98267.34;2112956;27;45825;-65
2023/01/17 02:12:52;;;;;;;;;11.75;11.75;;;;;7.62;65.43;98267.28;2088353;27;46315;-64
2023/01/17 02:13:52;;;;;;;;;16.00;14.00;;;;;7.65;65.39;98261.00;2077107;28;47182;-66
2023/01/17 02:14:52;;;;;;;;;11.50;10.00;;;;;7.66;65.30;98263.56;2070332;28;46668;-66
2023/01/17 02:16:11;;;;;;;;;12.00;10.75;;;;;7.68;65.02;98261.69;2070084;27;46607;-65
2023/01/17 02:17:28;;;;;;;;;9.00;9.00;;;;;7.68;65.26;98260.84;2070443;28;46680;-64
2023/01/17 02:19:07;;;;;;;;;9.00;9.00;;;;;7.69;65.01;98259.91;2070192;27;46283;-65
2023/01/17 02:20:27;;;;;;;;;8.00;7.80;;;;;7.72;65.21;98262.38;2070669;28;45643;-65
2023/01/17 02:21:34;;;;;;;;;5.00;5.00;;;;;7.74;65.22;98257.03;2064461;28;46939;-66
2023/01/17 02:23:01;;;;;;;;;9.20;7.60;;;;;7.75;64.96;98258.72;2065832;28;46778;-65
2023/01/17 02:24:44;;;;;;;;;10.00;8.20;;;;;7.76;65.09;98250.75;2062241;28;46807;-66
2023/01/17 02:26:09;;;;;;;;;5.60;5.20;;;;;7.79;65.21;98247.13;2032999;28;46708;-66
2023/01/17 02:27:15;;;;;;;;;6.80;5.00;;;;;7.80;65.05;98254.09;2037350;28;46432;-65
2023/01/17 02:28:27;;;;;;;;;6.00;6.00;;;;;7.80;64.94;98244.38;2028848;29;46255;-65
2023/01/17 02:29:43;;;;;;;;;7.60;6.40;;;;;7.81;64.91;98239.97;2030885;28;47016;-66
2023/01/17 02:30:53;;;;;;;;;6.80;6.80;;;;;7.82;65.04;98237.25;2037201;28;46444;-66
2023/01/17 02:32:06;;;;;;;;;8.40;6.60;;;;;7.81;64.79;98238.19;2036511;28;46674;-64
2023/01/17 02:33:24;;;;;;;;;6.40;5.20;;;;;7.82;64.92;98236.38;2035145;28;47098;-66
2023/01/17 02:34:38;;;;;;;;;5.60;5.60;;;;;7.84;64.92;98242.44;2035547;28;45305;-65
2023/01/17 02:36:05;;;;;;;;;7.60;7.20;;;;;7.84;64.86;98235.38;2037370;28;46079;-65
2023/01/17 02:37:17;;;;;;;;;5.20;4.60;;;;;7.84;64.78;98234.53;2037327;28;45994;-65
2023/01/17 02:38:24;;;;;;;;;6.00;6.00;;;;;7.83;64.90;98230.19;2037219;28;45829;-64
2023/01/17 02:39:35;;;;;;;;;4.80;4.80;;;;;7.83;64.80;98227.53;2037281;28;46578;-64
2023/01/17 02:40:41;;;;;;;;;10.60;9.00;;;;;7.81;64.90;98224.97;2070035;28;46422;-63
2023/01/17 02:41:45;;;;;;;;;4.20;4.20;;;;;7.79;64.71;98224.19;2065240;28;46400;-65
2023/01/17 02:42:53;;;;;;;;;6.20;5.60;;;;;7.77;64.85;98226.06;2037063;28;46844;-64
2023/01/17 02:43:54;;;;;;;;;7.20;5.20;;;;;7.76;64.97;98218.22;2032083;28;46568;-63
2023/01/17 02:44:54;;;;;;;;;8.00;8.00;;;;;7.74;64.69;98210.34;2029277;29;46620;-64
2023/01/17 02:45:54;;;;;;;;;6.25;6.25;;;;;7.73;64.63;98213.09;2036854;28;46880;-64
2023/01/17 02:46:56;;;;;;;;;6.25;6.25;;;;;7.71;64.86;98210.53;2036713;28;46110;-64
2023/01/17 02:47:57;;;;;;;;;11.80;9.60;;;;;7.71;64.85;98209.66;2021603;29;46390;-65
2023/01/17 02:48:59;;;;;;;;;8.75;6.25;;;;;7.70;64.87;98207.97;2027968;28;44964;-64
2023/01/17 02:50:07;;;;;;;;;8.40;8.40;;;;;7.68;65.10;98206.25;2036667;28;45667;-64
2023/01/17 02:51:25;;;;;;;;;11.20;9.20;;;;;7.67;65.08;98204.56;2036945;28;46484;-64
2023/01/17 02:52:48;;;;;;;;;11.00;11.00;;;;;7.64;65.01;98198.56;2037140;28;46797;-64
2023/01/17 02:54:00;;;;;;;;;13.20;11.40;;;;;7.62;65.03;98197.78;2037003;28;46392;-63
2023/01/17 02:55:25;;;;;;;;;12.40;10.20;;;;;7.61;65.08;98198.72;2035097;28;46286;-63
2023/01/17 02:56:43;;;;;;;;;11.00;11.00;;;;;7.59;65.14;98192.66;2029122;29;46729;-65
2023/01/17 02:58:01;;;;;;;;;12.80;12.80;;;;;7.58;65.06;98193.59;2031317;28;46722;-64
2023/01/17 02:59:27;;;;;;;;;13.00;11.20;;;;;7.57;65.19;98186.59;2030662;29;45136;-64
2023/01/17 03:00:41;;;;;;;;;13.80;11.80;;;;;7.56;65.09;98182.25;2033631;28;46796;-65
2023/01/17 03:02:15;;;;;;;;;12.20;12.20;;;;;7.54;65.30;98178.84;2038024;28;45644;-64
2023/01/17 03:03:40;;;;;;;;;11.40;11.00;;;;;7.51;64.98;98171.94;2046280;28;46607;-64
2023/01/17 03:04:49;;;;;;;;;11.00;11.00;;;;;7.49;65.38;98173.78;2066281;27;46428;-64
2023/01/17 03:05:50;;;;;;;;;12.80;12.80;;;;;7.48;65.13;98166.78;2071416;28;46466;-64
2023/01/17 03:06:52;;;;;;;;;15.25;13.25;;;;;7.47;65.18;98165.09;2071225;27;46315;-65
2023/01/17 03:07:53;;;;;;;;;14.80;12.00;;;;;7.46;65.44;98166.03;2068086;27;46792;-64
2023/01/17 03:08:54;;;;;;;;;13.00;13.00;;;;;7.45;65.22;98163.47;2070556;28;46600;-64
2023/01/17 03:09:59;;;;;;;;;17.00;15.50;;;;;7.44;65.50;98156.47;2070762;27;46569;-64
2023/01/17 03:11:00;;;;;;;;;14.40;13.60;;;;;7.43;65.39;98153.00;2063358;28;46727;-64
2023/01/17 03:12:03;;;;;;;;;17.50;15.75;;;;;7.41;65.28;98154.00;2066075;28;46541;-64
2023/01/17 03:13:03;;;;;;;;;14.80;14.80;;;;;7.40;65.31;98145.22;2071444;27;46101;-65
2023/01/17 03:14:03;;;;;;;;;15.75;14.25;;;;;7.40;65.60;98153.16;2071431;27;46258;-63
2023/01/17 03:15:10;;;;;;;;;15.75;15.00;;;;;7.38;65.30;98150.59;2071418;27;46652;-64
2023/01/17 03:16:17;;;;;;;;;14.80;14.80;;;;;7.37;65.48;98156.81;2070699;27;46282;-65
2023/01/17 03:17:18;;;;;;;;;13.80;13.80;;;;;7.36;65.33;98149.78;2062833;28;46678;-65
2023/01/17 03:18:18;;;;;;;;;15.00;14.25;;;;;7.34;65.63;98151.66;2071184;28;45949;-66
2023/01/17 03:19:19;;;;;;;;;14.00;14.00;;;;;7.34;65.54;98146.38;2068923;28;46963;-64
2023/01/17 03:20:19;;;;;;;;;17.00;16.50;;;;;7.33;65.64;98149.94;2054721;28;46472;-64
2023/01/17 03:21:21;;;;;;;;;16.50;16.50;;;;;7.33;65.64;98151.72;2054456;28;46193;-64
2023/01/17 03:22:21;;;;;;;;;15.40;13.00;;;;;7.32;65.66;98142.97;2063656;28;46267;-65
2023/01/17 03:23:22;;;;;;;;;15.00;15.00;;;;;7.33;65.55;98149.09;2063050;28;45492;-66
2023/01/17 03:24:22;;;;;;;;;15.00;15.00;;;;;7.32;65.53;98145.59;2062296;28;45455;-64
2023/01/17 03:25:22;;;;;;;;;17.25;15.75;;;;;7.32;65.41;98140.31;2071488;27;46682;-65
2023/01/17 03:26:23;;;;;;;;;15.00;14.00;;;;;7.32;65.66;98144.75;2071392;28;46652;-66
2023/01/17 03:27:23;;;;;;;;;16.25;15.00;;;;;7.31;65.68;98138.63;2071092;27;46235;-66
2023/01/17 03:28:23;;;;;;;;;16.25;15.00;;;;;7.29;65.68;98137.00;2062342;28;46567;-64
2023/01/17 03:29:24;;;;;;;;;17.25;16.00;;;;;7.28;65.57;98135.28;2062757;28;45354;-65
2023/01/17 03:30:24;;;;;;;;;17.50;12.75;;;;;7.25;65.80;98133.66;2071085;27;46314;-65
2023/01/17 03:31:25;;;;;;;;;15.75;13.75;;;;;7.24;65.47;98134.59;2062660;28;46894;-65
2023/01/17 03:32:25;;;;;;;;;14.75;13.25;;;;;7.22;65.83;98128.50;2062090;28;46480;-65
2023/01/17 03:33:26;;;;;;;;;14.75;13.50;;;;;7.21;65.62;98136.50;2062325;28;45544;-65
2023/01/17 03:34:26;;;;;;;;;13.50;13.50;;;;;7.19;65.70;98130.47;2062616;28;45248;-66
2023/01/17 03:35:27;;;;;;;;;16.25;14.50;;;;;7.15;65.88;98127.13;2063709;27;46213;-66
2023/01/17 03:36:27;;;;;;;;;15.00;14.75;;;;;7.13;65.65;98130.78;2070988;28;46311;-65
2023/01/17 03:37:27;;;;;;;;;12.25;12.25;;;;;7.11;65.95;98129.97;2071105;27;46283;-65
2023/01/17 03:38:29;;;;;;;;;15.50;15.50;;;;;7.09;65.76;98130.91;2066215;27;46375;-65
2023/01/17 03:39:29;;;;;;;;;15.80;13.40;;;;;7.08;65.95;98129.19;2070712;28;46860;-65
2023/01/17 03:40:29;;;;;;;;;15.50;15.50;;;;;7.08;65.75;98121.28;2062543;28;45699;-65
2023/01/17 03:41:30;;;;;;;;;15.00;12.25;;;;;7.09;66.02;98127.41;2062744;28;46537;-65
2023/01/17 03:42:30;;;;;;;;;17.75;16.50;;;;;7.09;65.86;98127.41;2077696;28;46541;-64
2023/01/17 03:43:30;;;;;;;;;16.00;15.00;;;;;7.08;65.76;98125.69;2076523;28;46230;-65
2023/01/17 03:44:32;;;;;;;;;12.50;12.50;;;;;7.09;66.17;98124.78;2070852;28;46105;-65
2023/01/17 03:45:33;;;;;;;;;14.40;14.20;;;;;7.08;65.84;98123.91;2071143;28;46869;-65
2023/01/17 03:46:33;;;;;;;;;17.75;16.00;;;;;7.07;66.09;98122.22;2071104;28;47303;-65
2023/01/17 03:47:35;;;;;;;;;14.25;12.50;;;;;7.08;65.94;98118.66;2070884;27;46358;-64
2023/01/17 03:48:35;;;;;;;;;6.20;6.20;;;;;7.07;66.03;98122.22;2074987;28;46355;-65
2023/01/17 03:49:35;;;;;;;;;13.25;13.25;;;;;7.07;65.87;98122.22;2074491;28;46592;-64
2023/01/17 03:50:35;;;;;;;;;13.25;13.25;;;;;7.05;66.03;98116.16;2063482;28;46590;-64
2023/01/17 03:51:36;;;;;;;;;13.25;13.25;;;;;7.05;66.07;98121.44;2062143;28;46314;-64
2023/01/17 03:52:36;;;;;;;;;12.75;12.75;;;;;7.05;66.13;98120.59;2062894;28;46287;-65
2023/01/17 03:53:36;;;;;;;;;12.75;11.25;;;;;7.04;65.70;98114.47;2068414;28;46593;-65
2023/01/17 03:54:37;;;;;;;;;11.75;11.75;;;;;7.04;66.04;98118.88;2070037;28;45476;-66
2023/01/17 03:55:37;;;;;;;;;14.75;14.50;;;;;7.04;65.90;98118.88;2071414;28;45778;-64
2023/01/17 03:56:38;;;;;;;;;16.50;16.50;;;;;7.03;66.29;98114.53;2071109;27;47131;-65
2023/01/17 03:57:38;;;;;;;;;13.25;12.50;;;;;7.01;66.33;98119.91;2070682;27;46565;-65
2023/01/17 03:58:39;;;;;;;;;11.50;11.50;;;;;7.02;65.89;98118.97;2064654;28;45555;-64
2023/01/17 03:59:39;;;;;;;;;13.00;11.00;;;;;7.01;66.18;98111.13;2063055;28;45514;-64
2023/01/17 04:00:39;;;;;;;;;11.00;11.00;;;;;7.01;66.19;98111.13;2062892;28;45562;-65
2023/01/17 04:01:40;;;;;;;;;11.75;11.00;;;;;7.01;66.15;98111.97;2063970;28;46211;-65
2023/01/17 04:02:40;;;;;;;;;14.50;11.50;;;;;7.01;66.02;98111.97;2062825;28;46554;-64
2023/01/17 04:03:40;;;;;;;;;12.25;12.25;;;;;7.04;66.15;98108.34;2068237;27;46097;-65
2023/01/17 04:04:41;;;;;;;;;11.00;10.00;;;;;7.03;66.17;98114.53;2071410;27;45198;-64
2023/01/17 04:05:41;;;;;;;;;14.00;13.50;;;;;7.03;66.06;98106.63;2070577;28;46897;-65
2023/01/17 04:06:41;;;;;;;;;13.75;12.25;;;;;7.03;66.42;98110.13;2073406;28;46624;-65
2023/01/17 04:07:42;;;;;;;;;9.00;9.00;;;;;7.04;66.32;98101.28;2069401;27;46244;-65
2023/01/17 04:08:42;;;;;;;;;11.00;10.50;;;;;7.05;66.24;98102.13;2062343;28;46662;-66
2023/01/17 04:09:42;;;;;;;;;12.75;11.75;;;;;7.07;66.38;98110.81;2067430;28;46138;-65
2023/01/17 04:10:43;;;;;;;;;11.75;11.00;;;;;7.08;66.34;98104.59;2062598;28;46890;-65
2023/01/17 04:11:43;;;;;;;;;16.50;12.00;;;;;7.08;66.65;98105.47;2063192;28;45747;-65
2023/01/17 04:12:43;;;;;;;;;10.00;9.67;;;;;7.09;66.31;98104.53;2063790;28;45101;-65
2023/01/17 04:13:44;;;;;;;;;13.75;11.25;;;;;7.09;66.17;98109.81;2071337;27;45570;-65
2023/01/17 04:14:44;;;;;;;;;13.25;11.00;;;;;7.11;66.24;98107.09;2070807;28;46711;-64
2023/01/17 04:15:47;;;;;;;;;13.00;10.00;;;;;7.13;66.30;98110.53;2070710;27;46723;-65
2023/01/17 04:16:48;;;;;;;;;11.00;10.00;;;;;7.15;66.48;98105.19;2064094;28;45498;-65
2023/01/17 04:17:48;;;;;;;;;10.75;9.50;;;;;7.15;66.15;98102.53;2062778;28;46894;-65
2023/01/17 04:18:48;;;;;;;;;14.00;11.00;;;;;7.16;66.02;98099.81;2062752;28;45620;-66
2023/01/17 04:19:49;;;;;;;;;12.25;12.25;;;;;7.17;66.06;98095.41;2062993;28;46612;-64
2023/01/17 04:20:50;;;;;;;;;14.00;14.00;;;;;7.17;66.15;98101.53;2062865;28;47380;-64
2023/01/17 04:21:50;;;;;;;;;11.20;11.20;;;;;7.18;65.85;98108.50;2054072;28;46606;-64
2023/01/17 04:22:50;;;;;;;;;15.50;13.75;;;;;7.17;66.37;98098.03;2057732;28;46586;-64
2023/01/17 04:23:51;;;;;;;;;13.75;13.25;;;;;7.16;66.23;98097.19;2062831;28;46587;-65
2023/01/17 04:24:51;;;;;;;;;11.75;11.75;;;;;7.18;66.05;98099.75;2069921;27;46444;-64
2023/01/17 04:25:51;;;;;;;;;12.50;12.50;;;;;7.18;66.06;98097.09;2087503;28;45946;-65
2023/01/17 04:26:52;;;;;;;;;12.50;12.25;;;;;7.17;66.09;98101.53;2087411;28;46008;-65
2023/01/17 04:27:52;;;;;;;;;13.50;11.00;;;;;7.17;66.16;98095.41;2095836;28;46534;-64
2023/01/17 04:28:53;;;;;;;;;16.50;11.25;;;;;7.16;66.36;98102.47;2096232;28;46229;-64
2023/01/17 04:29:53;;;;;;;;;14.50;14.25;;;;;7.16;66.12;98096.34;2095817;28;46830;-64
2023/01/17 04:30:57;;;;;;;;;10.75;10.75;;;;;7.18;66.14;98099.75;2095987;28;46588;-64
2023/01/17 04:31:57;;;;;;;;;15.80;12.80;;;;;7.16;66.23;98102.47;2096308;28;46390;-64
2023/01/17 04:32:58;;;;;;;;;11.50;11.50;;;;;7.16;66.05;98102.47;2095631;28;46739;-64
2023/01/17 04:33:58;;;;;;;;;13.75;12.00;;;;;7.16;66.17;98101.59;2096346;28;46652;-64
2023/01/17 04:34:59;;;;;;;;;8.00;5.75;;;;;7.14;66.22;98093.78;2096415;28;46058;-66
2023/01/17 04:35:59;;;;;;;;;15.00;11.00;;;;;7.13;66.00;98097.34;2096062;28;46648;-64
2023/01/17 04:36:59;;;;;;;;;11.00;11.00;;;;;7.11;66.03;98096.53;2095794;28;46593;-65
2023/01/17 04:38:00;;;;;;;;;11.50;10.50;;;;;7.09;65.75;98099.25;2087853;28;45870;-64
2023/01/17 04:39:00;;;;;;;;;11.75;11.00;;;;;7.07;66.00;98090.56;2088059;28;45696;-64
2023/01/17 04:40:01;;;;;;;;;10.75;10.50;;;;;7.05;66.41;98083.66;2096301;28;46907;-65
2023/01/17 04:41:01;;;;;;;;;14.75;13.25;;;;;7.06;66.16;98085.38;2095725;28;46202;-64
2023/01/17 04:42:01;;;;;;;;;9.50;9.50;;;;;7.06;66.17;98082.75;2096044;28;46213;-64
2023/01/17 04:43:02;;;;;;;;;15.00;12.00;;;;;7.05;66.34;98078.41;2095713;28;46336;-64
2023/01/17 04:44:03;;;;;;;;;10.75;10.75;;;;;7.03;66.24;98082.91;2095726;28;46288;-65
2023/01/17 04:45:04;;;;;;;;;18.80;14.00;;;;;7.01;66.34;98082.13;2095850;28;47369;-65
2023/01/17 04:46:08;;;;;;;;;11.00;11.00;;;;;7.00;66.41;98075.16;2095762;28;46482;-65
2023/01/17 04:47:09;;;;;;;;;11.00;11.00;;;;;7.00;66.31;98077.78;2095792;28;46923;-65
2023/01/17 04:48:11;;;;;;;;;10.50;10.50;;;;;7.00;66.21;98075.16;2095437;28;46726;-65
2023/01/17 04:49:11;;;;;;;;;12.20;11.40;;;;;7.00;66.48;98081.28;2096994;28;46692;-65
2023/01/17 04:50:12;;;;;;;;;13.00;11.50;;;;;6.99;66.30;98071.66;2095930;28;45866;-64
2023/01/17 04:51:12;;;;;;;;;16.00;14.50;;;;;7.01;66.25;98077.69;2079376;28;45740;-65
2023/01/17 04:52:13;;;;;;;;;11.50;11.25;;;;;7.02;66.47;98071.50;2087179;28;45944;-65
2023/01/17 04:53:14;;;;;;;;;17.00;13.40;;;;;7.01;66.44;98071.56;2095914;28;46577;-64
2023/01/17 04:54:17;;;;;;;;;12.50;11.75;;;;;7.03;66.32;98077.63;2096009;28;45917;-69
2023/01/17 04:55:17;;;;;;;;;13.80;12.60;;;;;7.04;66.59;98074.06;2095853;28;46750;-64
2023/01/17 04:56:18;;;;;;;;;13.25;13.25;;;;;7.05;66.59;98070.50;2095857;28;46206;-65
2023/01/17 04:57:19;;;;;;;;;15.50;15.50;;;;;7.07;66.38;98064.19;2090436;28;45292;-64
2023/01/17 04:58:20;;;;;;;;;15.25;12.25;;;;;7.09;66.46;98074.66;2070767;27;45980;-65
2023/01/17 04:59:20;;;;;;;;;12.25;12.25;;;;;7.09;66.58;98069.41;2071008;27;46574;-66
2023/01/17 05:00:20;;;;;;;;;15.25;13.00;;;;;7.10;66.52;98065.81;2053929;28;46163;-65
2023/01/17 05:01:21;;;;;;;;;14.00;13.25;;;;;7.10;66.50;98063.19;2057218;28;46208;-65
2023/01/17 05:02:21;;;;;;;;;9.50;9.00;;;;;7.11;66.41;98062.25;2069997;27;46798;-65
2023/01/17 05:03:22;;;;;;;;;13.00;13.00;;;;;7.11;66.44;98062.25;2067252;28;46647;-65
2023/01/17 05:04:22;;;;;;;;;12.25;12.25;;;;;7.12;66.28;98063.13;2070751;28;46488;-64
2023/01/17 05:05:23;;;;;;;;;11.50;11.50;;;;;7.12;66.20;98056.06;2071002;27;46494;-65
2023/01/17 05:06:23;;;;;;;;;11.00;11.00;;;;;7.12;66.40;98055.22;2091653;27;45851;-65
2023/01/17 05:07:23;;;;;;;;;13.75;11.00;;;;;7.11;66.55;98051.72;2070907;28;46718;-65
2023/01/17 05:08:24;;;;;;;;;11.25;10.00;;;;;7.09;66.41;98051.78;2062965;28;46744;-65
2023/01/17 05:09:24;;;;;;;;;12.00;11.00;;;;;7.08;66.54;98057.16;2062392;28;46897;-66
2023/01/17 05:10:25;;;;;;;;;10.75;9.50;;;;;7.06;66.32;98053.72;2062911;28;45577;-65
2023/01/17 05:11:25;;;;;;;;;11.50;10.50;;;;;7.04;66.25;98056.44;2062404;28;46879;-64
2023/01/17 05:12:26;;;;;;;;;10.50;10.50;;;;;7.03;66.50;98051.25;2062760;28;46659;-66
2023/01/17 05:13:27;;;;;;;;;9.20;9.20;;;;;7.00;66.69;98049.63;2053752;28;46383;-64
2023/01/17 05:14:27;;;;;;;;;11.25;10.75;;;;;6.99;66.47;98052.34;2061918;28;46329;-64
2023/01/17 05:15:28;;;;;;;;;13.75;11.00;;;;;6.97;66.44;98052.41;2070005;28;46448;-65
2023/01/17 05:16:29;;;;;;;;;14.80;13.60;;;;;6.95;66.44;98048.13;2061851;28;45872;-65
2023/01/17 05:17:29;;;;;;;;;8.75;8.75;;;;;6.95;66.26;98046.34;2054044;28;46390;-64
2023/01/17 05:18:29;;;;;;;;;14.50;14.50;;;;;6.94;66.72;98042.00;2061498;28;46592;-64
2023/01/17 05:19:29;;;;;;;;;9.75;9.75;;;;;6.92;66.68;98041.25;2064797;28;46460;-65
2023/01/17 05:20:30;;;;;;;;;7.75;7.75;;;;;6.92;66.62;98041.25;2063616;28;46610;-64
2023/01/17 05:21:31;;;;;;;;;14.00;13.25;;;;;6.93;66.66;98039.47;2069874;27;45924;-65
2023/01/17 05:22:31;;;;;;;;;14.25;11.00;;;;;6.93;66.64;98034.19;2070057;27;46299;-66
2023/01/17 05:23:31;;;;;;;;;9.25;9.25;;;;;6.94;66.86;98038.53;2070457;28;46893;-65
2023/01/17 05:24:32;;;;;;;;;10.50;10.50;;;;;6.93;66.50;98027.13;2061558;28;46731;-65
2023/01/17 05:25:33;;;;;;;;;14.50;14.50;;;;;6.91;66.62;98030.78;2054188;28;45576;-65
2023/01/17 05:26:33;;;;;;;;;13.00;12.40;;;;;6.89;66.41;98030.00;2061994;28;46663;-65
2023/01/17 05:27:33;;;;;;;;;14.25;13.25;;;;;6.87;66.62;98027.44;2061872;28;46073;-65
2023/01/17 05:28:34;;;;;;;;;11.75;10.25;;;;;6.86;66.86;98031.00;2061784;28;46310;-65
2023/01/17 05:29:34;;;;;;;;;12.00;11.00;;;;;6.86;66.59;98025.75;2062054;28;46425;-65
2023/01/17 05:30:35;;;;;;;;;15.50;12.75;;;;;6.86;66.65;98025.75;2061642;28;46851;-66
2023/01/17 05:31:35;;;;;;;;;15.75;15.75;;;;;6.87;66.74;98022.16;2070760;28;46316;-64
2023/01/17 05:32:36;;;;;;;;;17.25;15.00;;;;;6.86;66.63;98023.09;2069391;28;46581;-64
2023/01/17 05:33:36;;;;;;;;;15.75;13.50;;;;;6.87;66.75;98026.59;2064522;27;45483;-65
2023/01/17 05:34:37;;;;;;;;;15.75;14.75;;;;;6.87;66.71;98023.97;2053922;28;47387;-65
2023/01/17 05:35:37;;;;;;;;;13.50;11.50;;;;;6.87;66.74;98026.59;2053423;28;45966;-64
2023/01/17 05:36:37;;;;;;;;;11.50;11.50;;;;;6.86;66.89;98033.66;2068159;27;46748;-65
2023/01/17 05:37:38;;;;;;;;;15.75;14.25;;;;;6.87;66.61;98026.59;2070627;28;46141;-65
2023/01/17 05:38:38;;;;;;;;;18.50;16.25;;;;;6.86;66.51;98027.50;2070206;27;46161;-66
2023/01/17 05:39:38;;;;;;;;;14.50;14.25;;;;;6.86;66.68;98027.50;2070540;27;46453;-64
2023/01/17 05:40:39;;;;;;;;;13.75;13.75;;;;;6.86;66.63;98022.22;2070315;27;45584;-65
2023/01/17 05:41:39;;;;;;;;;16.25;16.00;;;;;6.85;66.91;98012.59;2061704;28;46474;-65
2023/01/17 05:42:46;;;;;;;;;12.00;12.00;;;;;6.86;66.88;98019.59;2061676;28;46661;-65
2023/01/17 05:43:47;;;;;;;;;14.80;14.80;;;;;6.86;66.72;98023.09;2069965;27;46405;-65
2023/01/17 05:44:47;;;;;;;;;14.50;14.50;;;;;6.87;66.79;98013.41;2070618;27;46001;-65
2023/01/17 05:45:50;;;;;;;;;20.00;16.75;;;;;6.87;66.82;98021.31;2070639;28;46227;-66
2023/01/17 05:46:51;;;;;;;;;16.80;16.20;;;;;6.87;66.61;98016.03;2073075;28;46804;-65
2023/01/17 05:47:53;;;;;;;;;15.00;14.00;;;;;6.87;66.64;98014.25;2078871;28;46719;-65
2023/01/17 05:48:53;;;;;;;;;15.40;14.40;;;;;6.86;66.44;98017.84;2072317;28;46304;-65
2023/01/17 05:49:53;;;;;;;;;14.50;14.50;;;;;6.84;66.85;98014.38;2069518;28;46229;-65
2023/01/17 05:50:54;;;;;;;;;14.25;12.00;;;;;6.83;66.72;98017.09;2062148;28;46295;-66
2023/01/17 05:51:54;;;;;;;;;15.00;14.75;;;;;6.80;67.18;98010.22;2062379;28;46138;-65
2023/01/17 05:52:58;;;;;;;;;14.00;14.00;;;;;6.79;66.49;98011.16;2053971;28;46724;-64
2023/01/17 05:53:58;;;;;;;;;14.40;14.40;;;;;6.77;66.77;98007.72;2046408;28;46312;-66
2023/01/17 05:54:59;;;;;;;;;15.50;15.50;;;;;6.75;67.01;98007.81;2066611;27;46502;-67
2023/01/17 05:55:59;;;;;;;;;14.25;14.00;;;;;6.75;66.66;98009.59;2063099;28;46158;-65
2023/01/17 05:56:59;;;;;;;;;16.50;15.50;;;;;6.75;67.02;98010.44;2067849;28;46196;-65
2023/01/17 05:58:00;;;;;;;;;14.00;12.50;;;;;6.76;67.04;98014.78;2062274;28;46300;-65
2023/01/17 05:59:01;;;;;;;;;11.00;11.00;;;;;6.77;66.88;98005.09;2069724;27;46315;-65
2023/01/17 06:00:02;;;;;;;;;16.00;16.00;;;;;6.76;66.64;98003.41;2069982;28;46762;-65
2023/01/17 06:01:02;;;;;;;;;18.40;15.60;;;;;6.79;66.74;98000.59;2067673;27;45669;-64
2023/01/17 06:02:03;;;;;;;;;12.75;12.75;;;;;6.79;66.91;98011.16;2064196;27;45926;-65
2023/01/17 06:03:03;;;;;;;;;14.25;12.75;;;;;6.78;66.95;98007.66;2072802;27;46243;-65
2023/01/17 06:04:04;;;;;;;;;16.25;15.00;;;;;6.80;66.91;98002.31;2094890;27;46942;-65
2023/01/17 06:05:05;;;;;;;;;17.50;17.50;;;;;6.80;66.69;98004.94;2070413;27;46841;-65
2023/01/17 06:06:05;;;;;;;;;13.00;13.00;;;;;6.80;66.67;98002.31;2070564;28;46313;-65
2023/01/17 06:07:06;;;;;;;;;14.00;14.00;;;;;6.80;66.85;98004.94;2072271;27;46157;-64
2023/01/17 06:08:06;;;;;;;;;13.25;11.00;;;;;6.82;67.03;97999.59;2078548;28;46139;-64
2023/01/17 06:09:07;;;;;;;;;12.75;12.00;;;;;6.84;66.58;98003.00;2063967;28;46561;-64
2023/01/17 06:10:09;;;;;;;;;17.00;16.50;;;;;6.84;66.90;98001.22;2061691;28;46479;-65
2023/01/17 06:11:09;;;;;;;;;17.20;16.20;;;;;6.85;66.76;98002.06;2069922;27;46858;-64
2023/01/17 06:12:10;;;;;;;;;13.50;13.50;;;;;6.86;66.65;97993.22;2069760;28;46300;-64
2023/01/17 06:13:13;;;;;;;;;11.25;11.00;;;;;6.87;66.68;98000.22;2061498;28;46393;-64
2023/01/17 06:14:14;;;;;;;;;12.80;12.60;;;;;6.89;66.74;98001.00;2069305;28;47315;-64
2023/01/17 06:15:17;;;;;;;;;15.75;12.50;;;;;6.90;66.72;97997.44;2069960;27;46684;-65
2023/01/17 06:16:17;;;;;;;;;12.20;10.40;;;;;6.90;66.58;98000.06;2070295;28;46921;-64